Portada
METAR-TAF:

METAR-TAF

Aeropuertos :

Nenana, Alaska, Estados Unidos

latitud: 64-33N, longitud: 149-05W, altitud: 110 m

Observación

El informe se hizo hace 16 minutos, a las 08:53 UTC
Viento 4 kt con dirección variable
Temperatura -16°C
Humedad 60%
Presión 1012 hPa
Visibilidad: 6.4 km
Cielo cubierto a una altura de 5000 ft
poca nieve

METAR: PANN 280853Z AUTO VRB04KT 4SM -SN OVC050 M16/M22 A2987 RMK AO2 SLP131 P0001 60001 T11611217 411561294 56003 TSNO

Hora: 00:09 (09:09 UTC)


TAF: falta

Observaciones y pronósticos meteorológicos de más de 4000 aeropuertos (mensajes METAR y TAF).

Los puntos amarillos y rojos representan las estaciones disponibles.

Ponga el ratón en el punto deseado para ver el nombre de la estación.

Haga clic para ver las observaciones y los pronósticos meteorológicos.

Para cambiar el mapa : haga clic en los botones verdes con una cruz de color negro para hacer un zoom, en el botón verde con un guión para alejar o en las flechas verdes para mapas adyacentes.


METAR-TAF: